Time;durP1;ratioP1;P1;durP2;ratioP2;P2;SDS_P1;SDS_P2;PMS_P1;PMS_P2;Temp;Humidity;BMP_temperature;BMP_pressure;BME280_temperature;BME280_humidity;BME280_pressure;Samples;Min_cycle;Max_cycle;Signal;HPM_P1;HPM_P2
2022/11/22 00:00:19;;;;;;;37.53;20.58;;;;;;;-3.51;69.28;99643.81;4976654;28;20050;-71
2022/11/22 00:02:45;;;;;;;39.38;20.80;;;;;;;-3.51;69.24;99643.00;4978672;28;20464;-71
2022/11/22 00:05:12;;;;;;;39.92;20.08;;;;;;;-3.45;68.79;99653.91;4979463;28;20050;-72
2022/11/22 00:07:39;;;;;;;41.83;20.48;;;;;;;-3.41;69.25;99647.56;4981029;28;20047;-72
2022/11/22 00:10:07;;;;;;;46.65;20.77;;;;;;;-3.36;69.01;99637.59;4980141;28;20043;-72
2022/11/22 00:12:33;;;;;;;41.42;19.58;;;;;;;-3.42;68.89;99627.50;4979644;28;20054;-72
2022/11/22 00:15:00;;;;;;;38.13;20.50;;;;;;;-3.40;68.99;99620.38;4978385;28;20047;-70
2022/11/22 00:17:27;;;;;;;39.60;19.80;;;;;;;-3.49;69.04;99627.97;4980957;28;20046;-70
2022/11/22 00:19:53;;;;;;;36.55;19.77;;;;;;;-3.47;68.75;99620.88;4980258;28;20050;-71
2022/11/22 00:22:20;;;;;;;36.10;18.95;;;;;;;-3.51;68.71;99620.22;4979709;28;20053;-72
2022/11/22 00:24:46;;;;;;;36.78;19.25;;;;;;;-3.79;69.89;99613.28;4978320;28;20047;-71
2022/11/22 00:27:13;;;;;;;36.60;19.33;;;;;;;-3.77;69.83;99609.59;4978655;28;20051;-71
2022/11/22 00:29:39;;;;;;;34.75;19.33;;;;;;;-3.69;69.59;99606.47;4981699;28;20056;-72
2022/11/22 00:32:05;;;;;;;38.05;18.75;;;;;;;-3.75;69.17;99601.66;4986661;28;20053;-72
2022/11/22 00:34:32;;;;;;;36.35;19.58;;;;;;;-3.64;69.38;99601.81;4987633;28;20479;-71
2022/11/22 00:36:58;;;;;;;38.08;19.40;;;;;;;-3.54;69.01;99604.69;4988838;28;20061;-70
2022/11/22 00:39:25;;;;;;;38.67;19.80;;;;;;;-3.62;69.13;99602.56;4989158;28;20050;-72
2022/11/22 00:41:51;;;;;;;33.95;18.70;;;;;;;-3.75;69.42;99600.81;4987120;28;20046;-72
2022/11/22 00:44:18;;;;;;;33.58;19.40;;;;;;;-3.64;68.70;99608.84;4988316;28;20050;-72
2022/11/22 00:46:44;;;;;;;38.17;19.83;;;;;;;-3.46;68.53;99612.91;4990712;28;20045;-72
2022/11/22 00:49:10;;;;;;;43.10;20.65;;;;;;;-3.33;68.03;99611.19;4988725;28;20053;-72
2022/11/22 00:51:37;;;;;;;36.22;19.58;;;;;;;-3.51;68.27;99609.75;4988033;28;20052;-72
2022/11/22 00:54:04;;;;;;;34.70;19.45;;;;;;;-3.51;68.50;99604.50;4989397;28;20047;-72
2022/11/22 00:56:30;;;;;;;36.22;20.33;;;;;;;-3.39;68.00;99603.69;4972552;28;20051;-72
2022/11/22 00:58:57;;;;;;;38.83;20.17;;;;;;;-3.58;68.17;99608.44;4969621;28;20495;-72
2022/11/22 01:01:24;;;;;;;39.38;19.77;;;;;;;-3.55;68.09;99605.59;4968232;28;20061;-72
2022/11/22 01:03:50;;;;;;;35.88;19.98;;;;;;;-3.88;69.28;99598.94;4967371;28;20058;-72
2022/11/22 01:06:17;;;;;;;38.35;20.85;;;;;;;-3.84;69.88;99592.56;4965499;28;20047;-72
2022/11/22 01:08:44;;;;;;;38.58;19.60;;;;;;;-3.69;69.14;99589.91;4967330;28;20047;-72
2022/11/22 01:11:11;;;;;;;38.42;20.88;;;;;;;-3.75;68.66;99592.94;4966628;28;20110;-72
2022/11/22 01:13:38;;;;;;;36.47;19.73;;;;;;;-4.07;69.92;99591.41;4965808;28;20043;-72
2022/11/22 01:16:07;;;;;;;35.92;20.05;;;;;;;-3.93;69.70;99590.53;4966168;28;20047;-71
2022/11/22 01:18:33;;;;;;;38.60;19.27;;;;;;;-3.82;69.35;99589.88;4967239;28;20057;-72
2022/11/22 01:21:01;;;;;;;37.25;21.48;;;;;;;-3.91;69.67;99593.06;4965807;28;20066;-70
2022/11/22 01:23:27;;;;;;;41.17;21.60;;;;;;;-3.81;69.23;99588.94;4960475;28;20474;-72
2022/11/22 01:25:55;;;;;;;43.10;21.13;;;;;;;-4.03;69.54;99590.28;4967967;28;20051;-71
2022/11/22 01:28:22;;;;;;;43.15;21.30;;;;;;;-4.04;70.11;99585.94;4966608;28;20043;-72
2022/11/22 01:30:50;;;;;;;41.28;21.20;;;;;;;-3.92;69.88;99592.22;4968457;28;20043;-72
2022/11/22 01:33:17;;;;;;;48.38;21.65;;;;;;;-3.85;69.61;99596.13;4968908;28;20060;-72
2022/11/22 01:35:44;;;;;;;44.75;21.92;;;;;;;-3.78;69.19;99597.44;4969043;28;20054;-72
2022/11/22 01:38:10;;;;;;;41.22;21.70;;;;;;;-3.78;68.79;99591.34;4971567;28;20047;-72
2022/11/22 01:40:37;;;;;;;44.22;22.35;;;;;;;-3.65;68.83;99607.16;4963599;28;20047;-72
2022/11/22 01:43:15;;;;;;;42.75;21.30;;;;;;;-3.65;69.15;99601.91;4967183;28;20054;-72
2022/11/22 01:45:44;;;;;;;45.75;22.52;;;;;;;-3.93;69.19;99600.16;4968385;28;20048;-72
2022/11/22 01:48:10;;;;;;;46.45;22.77;;;;;;;-3.91;69.95;99596.50;4968372;28;20050;-71
2022/11/22 01:50:41;;;;;;;43.17;23.05;;;;;;;-3.64;69.17;99603.59;4968642;28;20049;-71
2022/11/22 01:53:12;;;;;;;41.38;22.15;;;;;;;-3.74;69.56;99598.09;4970324;28;20047;-71
2022/11/22 01:55:40;;;;;;;43.70;22.00;;;;;;;-3.56;68.96;99596.06;4977569;28;20039;-71
2022/11/22 01:58:08;;;;;;;43.83;21.77;;;;;;;-3.86;69.28;99586.59;4988043;28;20047;-71
2022/11/22 02:00:37;;;;;;;44.00;22.58;;;;;;;-3.79;69.17;99590.53;4989222;28;20047;-71
2022/11/22 02:03:08;;;;;;;41.70;21.80;;;;;;;-3.60;68.58;99600.66;4988979;28;20075;-71
2022/11/22 02:09:22;;;;;;;38.88;20.38;;;;;;;-3.65;69.04;99592.28;4988632;28;20050;-71
2022/11/22 02:11:52;;;;;;;46.28;22.55;;;;;;;-3.63;68.69;99586.91;4989612;28;20065;-72
2022/11/22 02:14:23;;;;;;;34.47;16.50;;;;;;;-3.88;69.52;99587.63;4987838;28;20060;-71
2022/11/22 02:16:50;;;;;;;40.33;21.30;;;;;;;-3.78;69.23;99586.13;4987719;28;20050;-72
2022/11/22 02:19:26;;;;;;;42.55;20.58;;;;;;;-3.74;69.18;99587.59;4989302;28;20054;-72
2022/11/22 02:22:00;;;;;;;39.83;21.85;;;;;;;-4.03;69.99;99582.41;4986826;28;20058;-72
2022/11/22 02:24:45;;;;;;;44.83;22.48;;;;;;;-3.75;69.45;99585.09;4989093;28;20079;-72
2022/11/22 02:27:12;;;;;;;45.28;23.13;;;;;;;-3.85;69.58;99580.41;4988720;28;20050;-72
2022/11/22 02:29:38;;;;;;;43.75;21.58;;;;;;;-3.83;69.77;99567.19;4990663;28;20065;-72
2022/11/22 02:32:05;;;;;;;42.80;22.08;;;;;;;-3.87;70.02;99563.94;4988626;28;20056;-71
2022/11/22 02:34:46;;;;;;;53.03;24.35;;;;;;;-3.96;70.10;99561.91;4990876;28;20046;-71
2022/11/22 02:37:19;;;;;;;45.83;21.92;;;;;;;-4.10;70.43;99556.69;4987932;28;20051;-71
2022/11/22 02:39:47;;;;;;;46.80;23.35;;;;;;;-4.05;70.42;99552.84;4990361;28;20053;-72
2022/11/22 02:42:13;;;;;;;48.97;24.48;;;;;;;-3.99;70.68;99546.38;4988971;28;20055;-71
2022/11/22 02:44:40;;;;;;;51.22;24.85;;;;;;;-3.85;69.76;99548.97;4991276;28;20057;-72
2022/11/22 02:47:07;;;;;;;55.08;26.45;;;;;;;-3.81;70.00;99545.22;4991829;28;20110;-71
2022/11/22 02:49:34;;;;;;;51.42;25.48;;;;;;;-3.93;70.19;99546.00;4992115;28;20054;-71
2022/11/22 02:52:00;;;;;;;52.13;24.45;;;;;;;-4.05;70.46;99549.38;4990689;28;20472;-71
2022/11/22 02:54:27;;;;;;;56.13;26.52;;;;;;;-4.04;70.48;99551.06;4991795;28;20057;-72
2022/11/22 02:56:53;;;;;;;51.20;24.85;;;;;;;-3.81;69.96;99550.44;4975480;28;20095;-71
2022/11/22 02:59:20;;;;;;;53.72;25.88;;;;;;;-3.77;69.70;99546.69;4974117;28;20053;-72
2022/11/22 03:01:47;;;;;;;56.50;26.73;;;;;;;-3.92;70.17;99547.69;4973090;28;20053;-71
2022/11/22 03:04:23;;;;;;;48.88;25.48;;;;;;;-4.00;71.02;99549.94;4973281;28;20057;-71
2022/11/22 03:06:55;;;;;;;55.47;25.73;;;;;;;-3.93;70.16;99540.75;4979758;28;20047;-71
2022/11/22 03:09:23;;;;;;;49.60;25.20;;;;;;;-4.11;70.60;99531.41;4970336;28;20047;-71
2022/11/22 03:11:50;;;;;;;49.45;23.92;;;;;;;-3.81;70.01;99524.25;4973468;28;20051;-71
2022/11/22 03:14:17;;;;;;;53.25;24.42;;;;;;;-3.94;70.48;99532.97;4979063;28;20050;-71
2022/11/22 03:16:45;;;;;;;52.72;25.17;;;;;;;-3.77;70.32;99536.22;4971855;28;20051;-72
2022/11/22 03:19:12;;;;;;;50.28;24.52;;;;;;;-3.87;70.36;99534.28;4971129;28;20062;-72
2022/11/22 03:21:41;;;;;;;52.72;24.77;;;;;;;-4.19;71.41;99529.28;4971918;28;20051;-70
2022/11/22 03:24:08;;;;;;;51.70;24.83;;;;;;;-4.13;71.40;99533.31;4971209;28;20043;-70
2022/11/22 03:26:35;;;;;;;54.42;25.65;;;;;;;-4.00;71.24;99531.63;4971881;28;20043;-70
2022/11/22 03:29:02;;;;;;;53.47;25.83;;;;;;;-4.00;71.28;99526.38;4971393;28;20053;-70
2022/11/22 03:31:29;;;;;;;53.03;25.33;;;;;;;-3.72;70.36;99527.22;4971025;28;20095;-70
2022/11/22 03:33:55;;;;;;;54.60;26.10;;;;;;;-4.01;71.00;99529.91;4971451;28;20098;-71
2022/11/22 03:36:22;;;;;;;52.67;26.95;;;;;;;-3.85;71.17;99540.28;4970607;28;20111;-72
2022/11/22 03:38:49;;;;;;;55.03;26.70;;;;;;;-3.91;70.92;99519.69;4968946;28;20131;-72
2022/11/22 03:41:15;;;;;;;59.75;27.95;;;;;;;-4.02;71.52;99515.13;4970038;28;20066;-70
2022/11/22 03:43:42;;;;;;;56.83;26.02;;;;;;;-3.99;71.64;99520.19;4970873;28;20047;-70
2022/11/22 03:46:18;;;;;;;51.85;25.65;;;;;;;-3.84;71.01;99511.34;4972422;28;20047;-71
2022/11/22 03:48:45;;;;;;;51.33;26.33;;;;;;;-3.98;71.68;99511.38;4968687;28;20146;-71
2022/11/22 03:51:12;;;;;;;47.92;25.10;;;;;;;-4.02;72.05;99507.28;4969496;28;20138;-71
2022/11/22 03:53:38;;;;;;;52.78;26.40;;;;;;;-3.79;71.26;99504.03;4971457;28;20111;-70
2022/11/22 03:56:05;;;;;;;63.00;27.83;;;;;;;-3.75;71.02;99503.84;4984368;28;20110;-71
2022/11/22 03:58:32;;;;;;;55.22;26.52;;;;;;;-3.82;70.90;99503.41;4990115;28;20030;-71
2022/11/22 04:00:59;;;;;;;54.33;27.15;;;;;;;-3.94;72.00;99507.63;4991251;28;20047;-72
2022/11/22 04:03:26;;;;;;;58.22;26.67;;;;;;;-3.76;71.03;99505.59;4994278;28;20106;-71
2022/11/22 04:05:53;;;;;;;57.38;27.08;;;;;;;-3.59;70.74;99502.72;4995951;28;20042;-72
2022/11/22 04:08:19;;;;;;;54.88;26.52;;;;;;;-3.78;71.26;99499.63;4994824;28;20047;-72
2022/11/22 04:10:50;;;;;;;50.53;25.13;;;;;;;-3.72;70.69;99503.63;4994852;28;20054;-71
2022/11/22 04:13:17;;;;;;;60.00;27.00;;;;;;;-3.68;70.45;99502.50;4996375;28;20054;-71
2022/11/22 04:15:44;;;;;;;53.20;25.67;;;;;;;-4.08;71.97;99500.63;4994664;28;20065;-71
2022/11/22 04:18:12;;;;;;;50.53;25.60;;;;;;;-4.02;71.77;99502.88;4994868;28;20043;-71
2022/11/22 04:23:25;;;;;;;54.83;26.42;;;;;;;-3.81;71.81;99508.53;4994063;28;20053;-71
2022/11/22 04:25:59;;;;;;;59.92;27.23;;;;;;;-3.86;71.49;99502.75;4994080;28;20059;-71
2022/11/22 04:28:26;;;;;;;55.25;27.42;;;;;;;-3.80;72.16;99510.19;4992400;28;20125;-71
2022/11/22 04:33:57;;;;;;;61.60;28.65;;;;;;;-3.73;71.35;99515.06;4994210;28;20047;-71
2022/11/22 04:36:24;;;;;;;60.10;29.27;;;;;;;-3.54;70.90;99520.81;4996276;28;20051;-71
2022/11/22 04:38:51;;;;;;;62.28;29.58;;;;;;;-3.54;71.03;99507.69;4996490;28;20033;-71
2022/11/22 04:41:17;;;;;;;72.05;31.70;;;;;;;-3.58;71.18;99508.84;4995514;28;20053;-72
2022/11/22 04:46:30;;;;;;;64.75;30.67;;;;;;;-3.67;72.15;99499.78;4988470;28;20056;-71
2022/11/22 04:48:56;;;;;;;67.45;32.25;;;;;;;-3.80;72.29;99493.63;5000659;28;20031;-72
2022/11/22 04:54:08;;;;;;;66.47;31.10;;;;;;;-3.56;71.92;99496.44;4993321;28;20038;-71
2022/11/22 04:56:34;;;;;;;68.45;31.95;;;;;;;-3.59;72.34;99497.47;4976569;28;20073;-71
2022/11/22 04:59:01;;;;;;;66.68;31.02;;;;;;;-3.64;72.38;99493.50;4974325;28;20103;-72
2022/11/22 05:01:27;;;;;;;67.80;31.20;;;;;;;-3.76;73.00;99492.50;4973890;28;20044;-72
2022/11/22 05:03:54;;;;;;;68.50;31.08;;;;;;;-3.54;72.68;99498.03;4975369;28;20063;-71
2022/11/22 05:06:20;;;;;;;66.85;32.70;;;;;;;-3.26;72.41;99493.59;4974924;28;20055;-71
2022/11/22 05:08:47;;;;;;;66.53;32.53;;;;;;;-3.12;71.64;99490.88;4974175;28;20057;-71
2022/11/22 05:11:13;;;;;;;68.18;33.33;;;;;;;-3.37;71.92;99483.81;4974122;28;20110;-71
2022/11/22 05:13:41;;;;;;;68.70;31.77;;;;;;;-3.53;72.91;99485.75;4972658;28;20070;-71
2022/11/22 05:16:10;;;;;;;68.35;31.60;;;;;;;-3.75;73.59;99488.13;4972698;28;20043;-71
2022/11/22 05:18:37;;;;;;;66.80;31.75;;;;;;;-3.94;74.34;99478.81;4972764;28;20047;-71
2022/11/22 05:21:13;;;;;;;70.28;32.65;;;;;;;-3.67;74.14;99491.91;4974232;28;20066;-69
2022/11/22 05:23:55;;;;;;;72.78;33.25;;;;;;;-3.81;74.54;99490.19;4974218;28;20081;-70
2022/11/22 05:26:30;;;;;;;75.82;34.15;;;;;;;-3.75;74.26;99475.03;4972031;28;20131;-72
2022/11/22 05:28:57;;;;;;;73.95;34.20;;;;;;;-3.88;74.66;99474.97;4972968;28;20467;-72
2022/11/22 05:31:26;;;;;;;80.35;35.22;;;;;;;-3.75;74.15;99481.09;4973700;28;20047;-71
2022/11/22 05:33:54;;;;;;;75.07;33.80;;;;;;;-3.59;73.80;99488.78;4973991;28;20051;-72
2022/11/22 05:36:22;;;;;;;84.63;35.95;;;;;;;-3.62;74.21;99488.97;4974157;28;20055;-70
2022/11/22 05:38:49;;;;;;;82.82;36.30;;;;;;;-3.76;73.94;99489.88;4972010;28;20138;-70
2022/11/22 05:41:16;;;;;;;88.15;37.60;;;;;;;-3.72;73.66;99480.91;4974852;28;20115;-71
2022/11/22 05:43:43;;;;;;;77.43;33.47;;;;;;;-3.83;74.29;99483.34;4973709;28;20047;-70
2022/11/22 05:46:14;;;;;;;80.93;34.60;;;;;;;-3.96;75.39;99483.31;4973352;28;20514;-70
2022/11/22 05:48:49;;;;;;;78.72;35.03;;;;;;;-3.66;74.70;99485.72;4972431;28;20051;-71
2022/11/22 05:51:18;;;;;;;92.13;36.35;;;;;;;-3.57;74.27;99486.91;4974381;28;20058;-72
2022/11/22 05:53:45;;;;;;;81.75;35.15;;;;;;;-3.48;74.09;99498.56;4974119;28;20043;-72
2022/11/22 05:56:21;;;;;;;82.72;35.30;;;;;;;-3.28;73.74;99508.59;4988015;28;20070;-72
2022/11/22 05:58:49;;;;;;;90.53;37.72;;;;;;;-3.29;73.33;99505.13;4995055;28;20050;-72
2022/11/22 06:01:18;;;;;;;82.35;35.95;;;;;;;-3.11;72.72;99507.47;4995718;28;20115;-72
2022/11/22 06:03:45;;;;;;;76.20;33.55;;;;;;;-3.13;72.65;99512.00;4982579;28;20090;-72
2022/11/22 06:06:12;;;;;;;85.72;36.15;;;;;;;-3.24;72.74;99506.59;4955825;28;20056;-72
2022/11/22 06:08:40;;;;;;;88.97;36.65;;;;;;;-3.35;72.72;99508.16;4956388;28;20048;-71
2022/11/22 06:11:11;;;;;;;79.43;33.60;;;;;;;-3.34;73.01;99512.47;4955093;28;20047;-72
2022/11/22 06:13:39;;;;;;;;;;;;;;;-3.30;72.58;99513.09;4954977;28;20107;-70
2022/11/22 06:16:07;;;;;;;71.00;30.55;;;;;;;-3.40;72.90;99518.09;4954698;28;19923;-72
2022/11/22 06:18:34;;;;;;;79.43;32.83;;;;;;;-3.57;73.06;99503.47;4954925;28;20046;-72
2022/11/22 06:21:04;;;;;;;82.15;33.67;;;;;;;-3.60;73.97;99511.53;4952461;28;20062;-73
2022/11/22 06:23:32;;;;;;;86.05;33.85;;;;;;;-3.46;73.68;99518.50;4951214;28;20063;-70
2022/11/22 06:26:00;;;;;;;78.00;33.38;;;;;;;-3.50;73.64;99517.03;4951202;28;20107;-72
2022/11/22 06:28:32;;;;;;;78.95;33.33;;;;;;;-3.41;73.56;99516.44;4951719;28;20115;-72
2022/11/22 06:31:11;;;;;;;82.78;33.97;;;;;;;-3.50;73.64;99526.69;4952046;28;20058;-72
2022/11/22 06:33:38;;;;;;;86.20;35.75;;;;;;;-3.27;72.88;99523.41;4951478;28;20112;-70
2022/11/22 06:36:10;;;;;;;84.07;34.40;;;;;;;-3.23;72.96;99519.63;4952260;28;20103;-72
2022/11/22 06:38:38;;;;;;;84.03;36.08;;;;;;;-3.45;73.71;99525.41;4951892;28;20048;-72
2022/11/22 06:41:08;;;;;;;78.03;35.08;;;;;;;-3.23;73.31;99524.03;4952374;28;20055;-71
2022/11/22 06:43:36;;;;;;;77.28;34.50;;;;;;;-3.41;73.40;99532.16;4943958;28;20119;-71
2022/11/22 06:46:04;;;;;;;84.40;35.28;;;;;;;-3.36;72.88;99535.31;4964859;28;20125;-71
2022/11/22 06:48:33;;;;;;;86.30;35.55;;;;;;;-3.42;73.47;99545.38;4950262;28;20126;-72
2022/11/22 06:51:02;;;;;;;79.97;35.17;;;;;;;-3.32;73.15;99552.53;4952599;28;20062;-72
2022/11/22 06:53:30;;;;;;;85.63;34.45;;;;;;;-3.22;73.27;99549.31;4951755;28;20071;-72
2022/11/22 06:56:23;;;;;;;85.25;34.92;;;;;;;-3.21;72.87;99557.06;4976684;28;20043;-69
2022/11/22 06:58:51;;;;;;;76.40;33.35;;;;;;;-3.32;73.56;99554.31;4990965;28;20047;-72
2022/11/22 07:01:26;;;;;;;83.40;34.38;;;;;;;-3.18;73.25;99541.13;4991827;28;20058;-72
2022/11/22 07:03:56;;;;;;;81.45;34.55;;;;;;;-3.10;72.65;99538.00;4990133;28;20062;-72
2022/11/22 07:06:36;;;;;;;81.93;34.20;;;;;;;-2.83;72.12;99541.41;4993555;28;20131;-72
2022/11/22 07:09:05;;;;;;;79.03;34.63;;;;;;;-2.89;71.87;99549.69;4995132;28;20043;-72
2022/11/22 07:11:34;;;;;;;78.97;34.00;;;;;;;-3.05;72.11;99549.88;4992659;28;20118;-72
2022/11/22 07:14:01;;;;;;;79.95;33.88;;;;;;;-2.93;72.13;99544.75;4992702;28;20106;-72
2022/11/22 07:16:35;;;;;;;81.75;34.22;;;;;;;-2.97;72.25;99553.78;4991327;28;20027;-72
2022/11/22 07:19:01;;;;;;;82.80;33.72;;;;;;;-2.84;71.74;99558.09;4991442;28;20154;-72
2022/11/22 07:21:28;;;;;;;80.13;33.97;;;;;;;-2.85;72.15;99561.66;4985764;28;20055;-72
2022/11/22 07:23:55;;;;;;;83.30;34.75;;;;;;;-2.89;72.05;99560.19;4985586;28;20518;-72
2022/11/22 07:26:24;;;;;;;77.32;34.50;;;;;;;-2.92;71.41;99564.81;4986525;28;20102;-72
2022/11/22 07:28:51;;;;;;;80.57;33.63;;;;;;;-2.87;71.90;99560.91;4987943;28;20057;-72
2022/11/22 07:31:17;;;;;;;81.65;34.22;;;;;;;-3.05;71.92;99565.63;4986692;28;20073;-72
2022/11/22 07:33:44;;;;;;;76.88;34.03;;;;;;;-2.91;72.21;99575.19;4988152;28;20090;-72
2022/11/22 07:36:11;;;;;;;79.75;32.80;;;;;;;-2.99;72.10;99561.75;4989253;28;20050;-72
2022/11/22 07:38:38;;;;;;;77.07;34.22;;;;;;;-2.95;72.45;99562.41;4988679;28;20518;-72
2022/11/22 07:41:05;;;;;;;73.70;31.55;;;;;;;-2.98;72.15;99555.56;4990798;28;20053;-73
2022/11/22 07:43:32;;;;;;;70.03;30.20;;;;;;;-3.04;72.82;99537.59;4992015;28;21280;-72
2022/11/22 07:46:00;;;;;;;72.50;32.90;;;;;;;-2.93;71.85;99544.75;4992921;28;20035;-72
2022/11/22 07:48:26;;;;;;;73.80;31.45;;;;;;;-3.07;72.52;99546.50;4976769;28;20058;-73
2022/11/22 07:50:53;;;;;;;67.80;29.33;;;;;;;-3.12;72.73;99542.53;4981241;28;20133;-73
2022/11/22 07:53:19;;;;;;;72.53;31.60;;;;;;;-2.90;72.34;99537.50;4981729;28;20051;-73
2022/11/22 07:55:46;;;;;;;73.88;31.48;;;;;;;-2.94;72.32;99530.78;4973193;28;20049;-73
2022/11/22 07:58:13;;;;;;;71.15;31.60;;;;;;;-2.74;72.06;99525.97;4963458;28;20119;-72
2022/11/22 08:00:39;;;;;;;72.55;32.30;;;;;;;-2.89;72.55;99518.22;4961465;28;20051;-72
2022/11/22 08:03:07;;;;;;;71.47;32.03;;;;;;;-2.68;71.86;99520.31;4965417;28;20047;-73
2022/11/22 08:05:33;;;;;;;71.75;31.52;;;;;;;-2.93;71.97;99524.59;4966058;28;20053;-73
2022/11/22 08:08:00;;;;;;;68.38;30.75;;;;;;;-2.65;71.51;99507.81;4965560;28;20047;-73
2022/11/22 08:10:26;;;;;;;67.68;29.92;;;;;;;-3.05;72.45;99494.78;4963023;28;20051;-74
2022/11/22 08:12:53;;;;;;;67.22;31.13;;;;;;;-2.72;72.73;99509.19;4960468;28;20051;-72
2022/11/22 08:15:19;;;;;;;71.15;32.50;;;;;;;-2.84;72.27;99507.38;4965226;28;20138;-73
2022/11/22 08:17:46;;;;;;;78.50;32.55;;;;;;;-2.68;72.37;99515.91;4965087;28;20058;-73
2022/11/22 08:20:13;;;;;;;71.90;31.00;;;;;;;-2.87;72.40;99512.84;4965357;28;20086;-73
2022/11/22 08:22:39;;;;;;;72.28;31.08;;;;;;;-2.72;72.42;99503.06;4964951;28;20063;-73
2022/11/22 08:25:11;;;;;;;74.70;32.78;;;;;;;-2.83;73.21;99512.53;4963909;28;20503;-73
2022/11/22 08:27:41;;;;;;;72.93;30.80;;;;;;;-2.59;71.90;99504.75;4960939;28;20067;-73
2022/11/22 08:30:10;;;;;;;74.85;32.17;;;;;;;-2.60;71.78;99512.75;4963020;28;20051;-73
2022/11/22 08:32:37;;;;;;;74.88;30.67;;;;;;;-2.69;72.65;99508.13;4961382;28;20051;-73
2022/11/22 08:35:04;;;;;;;75.93;33.15;;;;;;;-2.81;72.78;99500.16;4963576;28;20074;-73
2022/11/22 08:37:31;;;;;;;70.95;30.52;;;;;;;-2.78;72.97;99498.28;4963852;28;20053;-73
2022/11/22 08:39:57;;;;;;;72.90;31.27;;;;;;;-2.79;72.79;99514.94;4962168;28;20058;-73
2022/11/22 08:42:24;;;;;;;77.07;31.33;;;;;;;-2.76;72.75;99506.84;4958733;28;20070;-71
2022/11/22 08:44:50;;;;;;;70.78;31.33;;;;;;;-2.78;73.31;99519.28;4962311;28;20107;-71
2022/11/22 08:47:17;;;;;;;85.75;32.80;;;;;;;-2.85;73.27;99527.56;4962213;28;20518;-71
2022/11/22 08:49:43;;;;;;;71.78;31.75;;;;;;;-2.59;72.56;99535.41;4960029;28;20052;-73
2022/11/22 08:52:10;;;;;;;77.60;33.00;;;;;;;-2.38;72.38;99543.59;4968465;28;20058;-73
2022/11/22 08:54:36;;;;;;;78.72;33.60;;;;;;;-2.74;73.43;99539.09;4968470;28;20059;-73
2022/11/22 08:57:04;;;;;;;78.35;33.00;;;;;;;-2.55;72.72;99547.38;4990318;28;20050;-73
2022/11/22 08:59:30;;;;;;;76.35;32.35;;;;;;;-2.66;72.71;99550.75;4982230;28;20137;-73
2022/11/22 09:01:58;;;;;;;81.22;33.70;;;;;;;-2.66;73.15;99555.16;4985942;28;20046;-72
2022/11/22 09:04:24;;;;;;;74.93;32.35;;;;;;;-2.54;72.49;99554.34;4989511;28;20053;-73
2022/11/22 09:06:51;;;;;;;71.72;31.48;;;;;;;-2.42;72.07;99552.66;4986709;28;20150;-73
2022/11/22 09:09:37;;;;;;;75.55;33.78;;;;;;;-2.39;71.76;99560.31;4985518;28;20047;-73
2022/11/22 09:12:04;;;;;;;73.90;31.33;;;;;;;-2.25;71.30;99575.97;4984411;28;20508;-73
2022/11/22 09:14:31;;;;;;;73.40;31.90;;;;;;;-2.20;71.48;99573.88;4984162;28;20450;-73
2022/11/22 09:16:57;;;;;;;74.63;33.50;;;;;;;-2.19;70.94;99566.81;4983970;28;20055;-73
2022/11/22 09:19:24;;;;;;;73.05;33.63;;;;;;;-2.34;72.26;99574.81;4984658;28;20119;-73
2022/11/22 09:21:50;;;;;;;82.15;32.72;;;;;;;-2.34;71.64;99574.81;4984295;28;20111;-72
2022/11/22 09:24:16;;;;;;;71.07;32.00;;;;;;;-2.13;70.87;99563.75;4985575;28;20057;-72
2022/11/22 09:26:43;;;;;;;73.93;31.70;;;;;;;-1.91;70.71;99563.09;4986170;28;20046;-73
2022/11/22 09:29:09;;;;;;;72.30;31.77;;;;;;;-1.82;70.67;99554.53;4985545;28;20047;-73
2022/11/22 09:31:36;;;;;;;70.57;30.70;;;;;;;-2.10;70.61;99558.28;4986096;28;20073;-73
2022/11/22 09:34:03;;;;;;;72.40;31.40;;;;;;;-2.01;71.03;99560.28;4985191;28;20070;-73
2022/11/22 09:36:29;;;;;;;76.97;32.03;;;;;;;-1.92;70.70;99557.00;4984838;28;20110;-73
2022/11/22 09:38:56;;;;;;;76.32;33.78;;;;;;;-1.85;70.77;99560.03;4984028;28;20054;-72
2022/11/22 09:41:50;;;;;;;81.03;32.28;;;;;;;-2.04;71.44;99573.63;4981041;28;20057;-72
2022/11/22 09:44:25;;;;;;;71.05;30.60;;;;;;;-2.16;72.05;99575.34;4981773;28;20047;-73
2022/11/22 09:46:58;;;;;;;64.45;30.08;;;;;;;-1.83;72.12;99578.31;4979670;28;20046;-73
2022/11/22 09:49:45;;;;;;;82.25;33.05;;;;;;;-1.86;72.19;99576.72;4982954;28;20049;-74
2022/11/22 09:52:31;;;;;;;74.97;31.98;;;;;;;-1.76;70.99;99575.13;4985681;28;20111;-74
2022/11/22 09:55:25;;;;;;;77.78;32.88;;;;;;;-1.59;70.79;99573.94;4981900;28;20039;-74
2022/11/22 09:58:04;;;;;;;83.85;33.42;;;;;;;-1.53;70.61;99578.75;4965718;28;20039;-73
2022/11/22 10:00:31;;;;;;;77.93;32.60;;;;;;;-1.35;70.21;99579.19;4958602;28;20070;-72
2022/11/22 10:03:13;;;;;;;75.38;33.97;;;;;;;-1.62;70.73;99592.56;4959183;28;20043;-72
2022/11/22 10:05:55;;;;;;;73.82;33.25;;;;;;;-1.82;72.08;99577.34;4960627;28;20062;-72
2022/11/22 10:08:36;;;;;;;80.20;33.53;;;;;;;-1.74;72.03;99582.94;4961698;28;20046;-73
2022/11/22 10:11:29;;;;;;;83.43;34.08;;;;;;;-1.66;71.37;99589.31;4962252;28;20047;-73
2022/11/22 10:14:11;;;;;;;78.53;32.10;;;;;;;-1.43;70.93;99578.94;4953097;28;20054;-73
2022/11/22 10:16:43;;;;;;;75.00;33.67;;;;;;;-1.76;72.46;99585.66;4959267;28;20140;-74
2022/11/22 10:19:13;;;;;;;87.22;35.50;;;;;;;-1.70;72.03;99587.00;4955495;28;20051;-73
2022/11/22 10:21:41;;;;;;;82.07;32.53;;;;;;;-1.52;71.55;99575.16;4953428;28;20066;-73
2022/11/22 10:24:15;;;;;;;80.80;34.88;;;;;;;-1.48;72.15;99576.63;4953247;28;20047;-74
2022/11/22 10:26:42;;;;;;;76.20;33.03;;;;;;;-1.44;71.37;99578.09;4958163;28;20051;-74
2022/11/22 10:29:26;;;;;;;77.90;34.00;;;;;;;-1.29;71.03;99575.28;4953535;28;20054;-73
2022/11/22 10:32:07;;;;;;;75.70;32.63;;;;;;;-1.02;70.59;99583.78;4953948;28;20130;-74
2022/11/22 10:34:39;;;;;;;74.80;33.15;;;;;;;-1.31;71.45;99578.03;4954315;28;20051;-73
2022/11/22 10:37:19;;;;;;;80.82;32.63;;;;;;;-1.16;71.17;99591.84;4951120;28;20059;-74
2022/11/22 10:39:51;;;;;;;85.38;34.20;;;;;;;-1.12;71.06;99577.53;4954976;28;20047;-74
2022/11/22 10:42:41;;;;;;;72.28;31.70;;;;;;;-1.25;71.21;99577.56;4955575;28;20050;-73
2022/11/22 10:45:28;;;;;;;80.32;32.70;;;;;;;-1.20;71.93;99585.13;4969218;28;20047;-73
2022/11/22 10:48:33;;;;;;;76.90;31.70;;;;;;;-0.94;71.00;99581.41;4954039;28;20051;-73
2022/11/22 10:51:14;;;;;;;77.32;32.35;;;;;;;-1.05;71.02;99572.66;4948737;28;20054;-74
2022/11/22 10:54:01;;;;;;;78.25;32.80;;;;;;;-1.13;71.39;99565.28;4953531;28;20416;-73
2022/11/22 10:56:38;;;;;;;74.40;33.03;;;;;;;-1.09;70.96;99569.41;4967039;28;20108;-75
2022/11/22 10:59:34;;;;;;;81.45;34.00;;;;;;;-1.20;71.37;99574.59;4973160;28;20499;-75
2022/11/22 11:02:09;;;;;;;83.97;34.22;;;;;;;-1.45;72.31;99589.53;4967080;28;20046;-73
2022/11/22 11:04:38;;;;;;;75.63;32.33;;;;;;;-1.22;72.71;99584.41;4971349;28;20047;-73
2022/11/22 11:07:10;;;;;;;75.70;34.03;;;;;;;-1.14;72.32;99576.78;4971335;28;20047;-73
2022/11/22 11:09:41;;;;;;;82.35;32.50;;;;;;;-0.99;71.67;99587.97;4971757;28;20053;-75
2022/11/22 11:12:46;;;;;;;85.30;33.13;;;;;;;-1.09;71.62;99582.56;4970591;28;20050;-74
2022/11/22 11:15:31;;;;;;;76.82;32.30;;;;;;;-0.93;71.84;99572.56;4971066;28;20074;-75
2022/11/22 11:18:01;;;;;;;78.18;33.95;;;;;;;-0.82;71.42;99568.28;4970382;28;20050;-75
2022/11/22 11:20:35;;;;;;;77.65;32.95;;;;;;;-0.79;71.36;99562.78;4970385;28;20130;-75
2022/11/22 11:23:02;;;;;;;81.80;33.90;;;;;;;-0.96;71.96;99556.97;4971325;28;20053;-75
2022/11/22 11:25:46;;;;;;;79.75;33.75;;;;;;;-0.98;71.86;99561.53;4969554;28;20499;-75
2022/11/22 11:28:17;;;;;;;83.93;36.90;;;;;;;-0.77;71.87;99551.19;4963022;28;20053;-74
2022/11/22 11:30:54;;;;;;;80.93;31.63;;;;;;;-0.64;71.21;99542.31;4970226;28;20061;-75
2022/11/22 11:33:40;;;;;;;78.95;33.25;;;;;;;-0.65;71.08;99544.13;4971834;28;20042;-75
2022/11/22 11:36:14;;;;;;;76.63;31.48;;;;;;;-0.75;71.41;99545.78;4969837;28;20061;-74
2022/11/22 11:38:41;;;;;;;83.60;33.28;;;;;;;-0.47;71.08;99547.13;4969497;28;20415;-73
2022/11/22 11:41:19;;;;;;;71.28;31.90;;;;;;;-0.62;70.94;99551.81;4970753;28;20137;-76
2022/11/22 11:43:46;;;;;;;73.18;31.70;;;;;;;-0.57;71.20;99549.66;4970614;28;20043;-74